Time,TemperatureF,DewpointF,PressureIn,WindDirection,WindDirectionDegrees,WindSpeedMPH,WindSpeedGustMPH,Humidity,HourlyPrecipIn,Conditions,Clouds,dailyrainin,SolarRadiationWatts/m^2,SoftwareType,DateUTC
2013-05-12 00:00:00,59.5,50.5,29.99,North,355,3.0,3.0,72,0.00,,,0.01,0,Wunderground v.1.15,2013-05-12 04:00:00,
2013-05-12 00:10:00,59.0,50.0,29.99,NNE,17,2.0,8.0,72,0.00,,,0.01,0,Wunderground v.1.15,2013-05-12 04:10:00,
2013-05-12 00:20:00,58.7,49.7,29.99,North,9,4.0,4.0,72,0.00,,,0.01,0,Wunderground v.1.15,2013-05-12 04:20:00,
2013-05-12 00:30:00,58.4,49.8,29.99,NNE,16,2.0,2.0,73,0.00,,,0.00,0,Wunderground v.1.15,2013-05-12 04:30:00,
2013-05-12 00:40:00,58.0,49.8,29.98,NNE,16,0.0,2.0,74,0.00,,,0.00,0,Wunderground v.1.15,2013-05-12 04:40:00,
2013-05-12 00:50:00,57.5,49.6,29.98,North,5,2.0,2.0,75,0.00,,,0.00,0,Wunderground v.1.15,2013-05-12 04:50:00,
2013-05-12 01:00:00,57.3,49.1,29.98,NNE,16,2.0,2.0,74,0.00,,,0.00,0,Wunderground v.1.15,2013-05-12 05:00:00,
2013-05-12 01:10:00,57.5,48.9,29.99,North,5,1.0,1.0,73,0.00,,,0.00,0,Wunderground v.1.15,2013-05-12 05:10:00,
2013-05-12 01:20:00,57.2,49.0,29.99,North,5,0.0,10.0,74,0.00,,,0.00,0,Wunderground v.1.15,2013-05-12 05:20:00,
2013-05-12 01:30:00,56.6,49.1,30.00,North,5,0.0,10.0,76,0.00,,,0.00,0,Wunderground v.1.15,2013-05-12 05:30:00,
2013-05-12 01:40:00,55.9,49.1,30.00,North,5,1.0,2.0,78,0.00,,,0.00,0,Wunderground v.1.15,2013-05-12 05:40:00,
2013-05-12 01:51:00,55.7,49.3,30.00,North,5,0.0,0.0,79,0.00,,,0.00,0,Wunderground v.1.15,2013-05-12 05:51:00,
2013-05-12 02:00:00,55.4,49.3,30.00,North,5,0.0,0.0,80,0.00,,,0.00,0,Wunderground v.1.15,2013-05-12 06:00:00,
2013-05-12 02:10:00,54.8,49.1,30.00,North,5,0.0,6.0,81,0.00,,,0.00,0,Wunderground v.1.15,2013-05-12 06:10:00,
2013-05-12 02:20:00,54.7,49.3,30.00,North,5,0.0,6.0,82,0.00,,,0.00,0,Wunderground v.1.15,2013-05-12 06:20:00,
2013-05-12 02:30:00,54.4,49.3,29.99,North,5,0.0,6.0,83,0.00,,,0.00,0,Wunderground v.1.15,2013-05-12 06:30:00,
2013-05-12 02:40:00,53.9,49.5,29.99,North,5,0.0,0.0,85,0.00,,,0.00,0,Wunderground v.1.15,2013-05-12 06:40:00,
2013-05-12 02:50:00,53.9,49.8,29.99,North,5,0.0,0.0,86,0.00,,,0.00,0,Wunderground v.1.15,2013-05-12 06:50:00,
2013-05-12 03:00:00,54.1,50.0,29.99,North,5,0.0,0.0,86,0.00,,,0.00,0,Wunderground v.1.15,2013-05-12 07:00:00,
2013-05-12 03:10:00,54.1,50.0,29.99,North,5,0.0,3.0,86,0.00,,,0.00,0,Wunderground v.1.15,2013-05-12 07:10:00,
2013-05-12 03:20:00,54.1,50.0,29.99,North,5,0.0,3.0,86,0.00,,,0.00,0,Wunderground v.1.15,2013-05-12 07:20:00,
2013-05-12 03:30:00,54.4,50.3,29.99,North,5,0.0,3.0,86,0.00,,,0.00,0,Wunderground v.1.15,2013-05-12 07:30:00,
2013-05-12 03:40:00,54.4,50.3,29.99,North,5,0.0,0.0,86,0.00,,,0.00,0,Wunderground v.1.15,2013-05-12 07:40:00,
2013-05-12 03:50:00,54.4,50.3,29.99,North,5,0.0,0.0,86,0.00,,,0.00,0,Wunderground v.1.15,2013-05-12 07:50:00,
2013-05-12 04:00:00,54.5,50.7,29.99,North,9,0.0,3.0,87,0.00,,,0.00,0,Wunderground v.1.15,2013-05-12 08:00:00,
2013-05-12 04:10:00,55.9,49.5,30.00,North,10,4.0,8.0,79,0.00,,,0.00,0,Wunderground v.1.15,2013-05-12 08:10:00,
2013-05-12 04:20:00,57.0,48.8,30.00,North,5,4.0,4.0,74,0.00,,,0.00,0,Wunderground v.1.15,2013-05-12 08:20:00,
2013-05-12 04:30:00,57.0,48.4,29.99,NNE,21,3.0,3.0,73,0.00,,,0.00,0,Wunderground v.1.15,2013-05-12 08:30:00,
2013-05-12 04:40:00,56.9,48.7,30.00,NNE,23,1.0,1.0,74,0.00,,,0.00,0,Wunderground v.1.15,2013-05-12 08:40:00,
2013-05-12 04:50:00,56.6,48.0,30.00,North,355,1.0,6.0,73,0.00,,,0.00,0,Wunderground v.1.15,2013-05-12 08:50:00,
2013-05-12 05:00:00,56.5,45.3,30.00,NNE,17,4.0,7.0,66,0.00,,,0.00,0,Wunderground v.1.15,2013-05-12 09:00:00,
2013-05-12 05:10:00,56.3,45.1,30.00,NNE,24,3.0,3.0,66,0.00,,,0.00,0,Wunderground v.1.15,2013-05-12 09:10:00,
2013-05-12 05:20:00,56.0,44.4,30.00,NNE,19,2.0,16.0,65,0.00,,,0.00,0,Wunderground v.1.15,2013-05-12 09:20:00,
2013-05-12 05:30:00,55.7,44.1,30.00,NNW,342,2.0,16.0,65,0.00,,,0.00,0,Wunderground v.1.15,2013-05-12 09:30:00,
2013-05-12 05:40:00,55.6,42.8,30.01,NE,40,2.0,4.0,62,0.00,,,0.00,0,Wunderground v.1.15,2013-05-12 09:40:00,
2013-05-12 05:50:00,55.6,41.5,30.01,NNE,30,3.0,3.0,59,0.00,,,0.00,0,Wunderground v.1.15,2013-05-12 09:50:00,
2013-05-12 06:00:00,55.4,41.3,30.02,NNE,30,2.0,2.0,59,0.00,,,0.00,0,Wunderground v.1.15,2013-05-12 10:00:00,
2013-05-12 06:10:00,55.1,41.0,30.02,NE,42,2.0,13.0,59,0.00,,,0.00,0,Wunderground v.1.15,2013-05-12 10:10:00,
2013-05-12 06:20:00,55.1,40.1,30.02,NNE,22,2.0,2.0,57,0.00,,,0.00,0,Wunderground v.1.15,2013-05-12 10:20:00,
2013-05-12 06:30:00,55.0,40.0,30.02,ENE,63,2.0,2.0,57,0.00,,,0.00,0,Wunderground v.1.15,2013-05-12 10:30:00,
2013-05-12 06:40:00,54.7,39.8,30.03,NNE,20,2.0,3.0,57,0.00,,,0.00,0,Wunderground v.1.15,2013-05-12 10:40:00,
2013-05-12 06:51:00,54.5,40.5,30.03,North,355,1.0,1.0,59,0.00,,,0.00,7,Wunderground v.1.15,2013-05-12 10:51:00,
2013-05-12 07:00:00,53.9,41.2,30.04,North,355,2.0,2.0,62,0.00,,,0.00,11,Wunderground v.1.15,2013-05-12 11:00:00,
2013-05-12 07:10:00,53.5,40.8,30.05,NE,51,2.0,11.0,62,0.00,,,0.00,14,Wunderground v.1.15,2013-05-12 11:10:00,
2013-05-12 07:20:00,53.3,39.3,30.05,NNE,17,4.0,4.0,59,0.00,,,0.00,18,Wunderground v.1.15,2013-05-12 11:20:00,
2013-05-12 07:30:00,53.2,39.2,30.06,NNE,17,3.0,11.0,59,0.00,,,0.00,19,Wunderground v.1.15,2013-05-12 11:30:00,
2013-05-12 07:40:00,52.9,39.0,30.07,NNE,28,4.0,4.0,59,0.00,,,0.00,21,Wunderground v.1.15,2013-05-12 11:40:00,
2013-05-12 07:50:00,52.8,38.4,30.07,North,5,3.0,5.0,58,0.00,,,0.00,23,Wunderground v.1.15,2013-05-12 11:50:00,
2013-05-12 08:00:00,52.6,36.9,30.07,North,350,4.0,5.0,55,0.00,,,0.00,28,Wunderground v.1.15,2013-05-12 12:00:00,
2013-05-12 08:10:00,52.5,36.8,30.08,NNE,24,3.0,11.0,55,0.00,,,0.00,26,Wunderground v.1.15,2013-05-12 12:10:00,
2013-05-12 08:21:00,52.6,36.4,30.08,North,355,4.0,4.0,54,0.00,,,0.00,28,Wunderground v.1.15,2013-05-12 12:21:00,
2013-05-12 08:30:00,52.6,36.4,30.08,NNE,13,3.0,3.0,54,0.00,,,0.00,28,Wunderground v.1.15,2013-05-12 12:30:00,
2013-05-12 08:40:00,52.8,37.1,30.08,NNE,27,2.0,2.0,55,0.00,,,0.00,30,Wunderground v.1.15,2013-05-12 12:40:00,
2013-05-12 08:50:00,53.1,36.4,30.08,NNE,15,1.0,1.0,53,0.00,,,0.00,32,Wunderground v.1.15,2013-05-12 12:50:00,
2013-05-12 09:00:00,53.2,36.0,30.08,NNE,19,2.0,2.0,52,0.00,,,0.00,32,Wunderground v.1.15,2013-05-12 13:00:00,
2013-05-12 09:10:00,53.5,35.3,30.08,NNE,28,3.0,3.0,50,0.00,,,0.00,33,Wunderground v.1.15,2013-05-12 13:10:00,
2013-05-12 09:20:00,53.8,34.6,30.08,NNE,15,2.0,15.0,48,0.00,,,0.00,35,Wunderground v.1.15,2013-05-12 13:20:00,
2013-05-12 09:30:00,54.1,33.8,30.08,NNW,334,4.0,4.0,46,0.00,,,0.00,37,Wunderground v.1.15,2013-05-12 13:30:00,
2013-05-12 09:40:00,54.5,34.1,30.09,NNE,12,3.0,3.0,46,0.00,,,0.00,39,Wunderground v.1.15,2013-05-12 13:40:00,
2013-05-12 09:50:00,55.0,32.9,30.09,NE,34,4.0,4.0,43,0.00,,,0.00,40,Wunderground v.1.15,2013-05-12 13:50:00,
2013-05-12 10:00:00,55.1,33.6,30.08,NNE,14,4.0,4.0,44,0.00,,,0.00,42,Wunderground v.1.15,2013-05-12 14:00:00,
2013-05-12 10:10:00,55.7,34.7,30.08,NNE,24,2.0,10.0,45,0.00,,,0.00,46,Wunderground v.1.15,2013-05-12 14:10:00,
2013-05-12 10:20:00,55.7,33.5,30.08,NNE,26,3.0,3.0,43,0.00,,,0.00,49,Wunderground v.1.15,2013-05-12 14:20:00,
2013-05-12 10:30:00,55.9,33.7,30.10,North,355,3.0,10.0,43,0.00,,,0.00,53,Wunderground v.1.15,2013-05-12 14:30:00,
2013-05-12 10:40:00,56.2,33.4,30.10,NNE,14,5.0,5.0,42,0.00,,,0.00,63,Wunderground v.1.15,2013-05-12 14:40:00,
2013-05-12 10:50:00,56.3,31.6,30.10,NNW,328,3.0,3.0,39,0.00,,,0.00,62,Wunderground v.1.15,2013-05-12 14:50:00,
2013-05-12 11:00:00,56.7,30.0,30.10,North,5,4.0,5.0,36,0.00,,,0.00,56,Wunderground v.1.15,2013-05-12 15:00:00,
2013-05-12 11:10:00,57.0,31.6,30.10,NNW,338,5.0,11.0,38,0.00,,,0.00,62,Wunderground v.1.15,2013-05-12 15:10:00,
2013-05-12 11:20:00,57.3,32.5,30.10,NNE,28,3.0,11.0,39,0.00,,,0.00,214,Wunderground v.1.15,2013-05-12 15:20:00,
2013-05-12 11:30:00,58.3,32.8,30.11,North,360,4.0,4.0,38,0.00,,,0.00,397,Wunderground v.1.15,2013-05-12 15:30:00,
2013-05-12 11:40:00,58.7,28.9,30.11,NNE,26,4.0,4.0,32,0.00,,,0.00,868,Wunderground v.1.15,2013-05-12 15:40:00,
2013-05-12 11:50:00,59.0,29.9,30.11,NNE,16,3.0,5.0,33,0.00,,,0.00,889,Wunderground v.1.15,2013-05-12 15:50:00,
2013-05-12 12:00:00,58.7,30.4,30.10,North,360,5.0,5.0,34,0.00,,,0.00,907,Wunderground v.1.15,2013-05-12 16:00:00,
2013-05-12 12:10:00,59.2,30.8,30.10,NNE,30,3.0,3.0,34,0.00,,,0.00,921,Wunderground v.1.15,2013-05-12 16:10:00,
2013-05-12 12:20:00,59.6,28.9,30.10,NNE,32,2.0,2.0,31,0.00,,,0.00,940,Wunderground v.1.15,2013-05-12 16:20:00,
2013-05-12 12:30:00,60.5,28.9,30.10,NNE,25,3.0,12.0,30,0.00,,,0.00,954,Wunderground v.1.15,2013-05-12 16:30:00,
2013-05-12 12:40:00,60.5,32.7,30.11,North,9,3.0,4.0,35,0.00,,,0.00,967,Wunderground v.1.15,2013-05-12 16:40:00,
2013-05-12 12:50:00,61.2,27.8,30.11,NNE,15,4.0,4.0,28,0.00,,,0.00,976,Wunderground v.1.15,2013-05-12 16:50:00,
2013-05-12 13:00:00,61.3,31.2,30.11,North,9,3.0,3.0,32,0.00,,,0.00,984,Wunderground v.1.15,2013-05-12 17:00:00,
2013-05-12 13:10:00,61.8,28.3,30.10,NNE,17,3.0,13.0,28,0.00,,,0.00,988,Wunderground v.1.15,2013-05-12 17:10:00,
2013-05-12 13:21:00,62.1,27.7,30.10,NNW,345,2.0,13.0,27,0.00,,,0.00,997,Wunderground v.1.15,2013-05-12 17:21:00,
2013-05-12 13:30:00,62.6,28.1,30.10,NNE,30,4.0,13.0,27,0.00,,,0.00,995,Wunderground v.1.15,2013-05-12 17:30:00,
2013-05-12 13:40:00,62.3,29.6,30.10,NNE,17,5.0,5.0,29,0.00,,,0.00,997,Wunderground v.1.15,2013-05-12 17:40:00,
2013-05-12 13:50:00,63.1,31.9,30.10,NNW,348,4.0,6.0,31,0.00,,,0.00,993,Wunderground v.1.15,2013-05-12 17:50:00,
2013-05-12 14:00:00,63.7,28.1,30.09,North,360,2.0,6.0,26,0.00,,,0.00,918,Wunderground v.1.15,2013-05-12 18:00:00,
2013-05-12 14:10:00,63.5,29.8,30.09,NNW,343,6.0,6.0,28,0.00,,,0.00,90,Wunderground v.1.15,2013-05-12 18:10:00,
2013-05-12 14:20:00,63.7,28.1,30.09,NNW,333,4.0,12.0,26,0.00,,,0.00,522,Wunderground v.1.15,2013-05-12 18:20:00,
2013-05-12 14:30:00,63.7,27.2,30.09,NW,325,4.0,12.0,25,0.00,,,0.00,90,Wunderground v.1.15,2013-05-12 18:30:00,
2013-05-12 14:40:00,63.9,30.1,30.09,NE,35,5.0,5.0,28,0.00,,,0.00,928,Wunderground v.1.15,2013-05-12 18:40:00,
2013-05-12 14:51:00,64.5,29.7,30.09,NNE,12,2.0,4.0,27,0.00,,,0.00,346,Wunderground v.1.15,2013-05-12 18:51:00,
2013-05-12 15:00:00,64.5,29.7,30.07,NNE,21,4.0,4.0,27,0.00,,,0.00,102,Wunderground v.1.15,2013-05-12 19:00:00,
2013-05-12 15:10:00,65.2,28.5,30.07,NNE,31,3.0,12.0,25,0.00,,,0.00,153,Wunderground v.1.15,2013-05-12 19:10:00,
2013-05-12 15:20:00,65.2,29.4,30.07,North,355,5.0,12.0,26,0.00,,,0.00,918,Wunderground v.1.15,2013-05-12 19:20:00,
2013-05-12 15:30:00,65.3,31.3,30.06,NNE,32,4.0,4.0,28,0.00,,,0.00,902,Wunderground v.1.15,2013-05-12 19:30:00,
2013-05-12 15:40:00,66.0,29.1,30.06,North,9,3.0,3.0,25,0.00,,,0.00,886,Wunderground v.1.15,2013-05-12 19:40:00,
2013-05-12 15:50:00,66.0,29.1,30.06,NNW,346,5.0,5.0,25,0.00,,,0.00,865,Wunderground v.1.15,2013-05-12 19:50:00,
2013-05-12 16:00:00,66.0,31.9,30.06,NNE,23,3.0,3.0,28,0.00,,,0.00,849,Wunderground v.1.15,2013-05-12 20:00:00,
2013-05-12 16:10:00,66.0,32.8,30.06,North,360,5.0,14.0,29,0.00,,,0.00,826,Wunderground v.1.15,2013-05-12 20:10:00,
2013-05-12 16:20:00,66.0,31.0,30.06,West,279,4.0,4.0,27,0.00,,,0.00,798,Wunderground v.1.15,2013-05-12 20:20:00,
2013-05-12 16:30:00,66.3,30.4,30.06,NNW,329,7.0,14.0,26,0.00,,,0.00,775,Wunderground v.1.15,2013-05-12 20:30:00,
2013-05-12 16:40:00,66.3,31.3,30.06,NNE,28,4.0,6.0,27,0.00,,,0.00,751,Wunderground v.1.15,2013-05-12 20:40:00,
2013-05-12 16:50:00,67.1,32.0,30.06,NNW,345,3.0,3.0,27,0.00,,,0.00,721,Wunderground v.1.15,2013-05-12 20:50:00,
2013-05-12 17:00:00,66.9,29.9,30.06,NNW,327,5.0,5.0,25,0.00,,,0.00,694,Wunderground v.1.15,2013-05-12 21:00:00,
2013-05-12 17:10:00,66.8,28.8,30.06,NNW,333,6.0,16.0,24,0.00,,,0.00,663,Wunderground v.1.15,2013-05-12 21:10:00,
2013-05-12 17:20:00,66.4,28.5,30.06,North,360,6.0,6.0,24,0.00,,,0.00,629,Wunderground v.1.15,2013-05-12 21:20:00,
2013-05-12 17:30:00,66.4,28.5,30.07,NNE,28,4.0,4.0,24,0.00,,,0.00,599,Wunderground v.1.15,2013-05-12 21:30:00,
2013-05-12 17:40:00,66.6,28.6,30.07,ENE,67,6.0,6.0,24,0.00,,,0.00,566,Wunderground v.1.15,2013-05-12 21:40:00,
2013-05-12 17:50:00,66.3,30.4,30.07,NNE,23,5.0,5.0,26,0.00,,,0.00,533,Wunderground v.1.15,2013-05-12 21:50:00,
2013-05-12 18:00:00,66.1,28.2,30.07,NNW,337,6.0,6.0,24,0.00,,,0.00,503,Wunderground v.1.15,2013-05-12 22:00:00,
2013-05-12 18:10:00,66.3,30.4,30.07,NNW,346,5.0,16.0,26,0.00,,,0.00,464,Wunderground v.1.15,2013-05-12 22:10:00,
2013-05-12 18:20:00,66.4,29.5,30.07,NNW,333,5.0,5.0,25,0.00,,,0.00,431,Wunderground v.1.15,2013-05-12 22:20:00,
2013-05-12 18:30:00,66.3,32.2,30.07,NNE,13,4.0,4.0,28,0.00,,,0.00,396,Wunderground v.1.15,2013-05-12 22:30:00,
2013-05-12 18:40:00,66.1,31.1,30.07,NNE,17,5.0,5.0,27,0.00,,,0.00,360,Wunderground v.1.15,2013-05-12 22:40:00,
2013-05-12 18:50:00,65.5,29.7,30.07,NNE,17,6.0,6.0,26,0.00,,,0.00,320,Wunderground v.1.15,2013-05-12 22:50:00,
2013-05-12 19:00:00,65.3,30.4,30.07,NNE,23,5.0,5.0,27,0.00,,,0.00,288,Wunderground v.1.15,2013-05-12 23:00:00,
2013-05-12 19:10:00,65.0,33.6,30.07,NNE,17,5.0,5.0,31,0.00,,,0.00,251,Wunderground v.1.15,2013-05-12 23:10:00,
2013-05-12 19:20:00,64.5,29.7,30.07,North,9,5.0,15.0,27,0.00,,,0.00,206,Wunderground v.1.15,2013-05-12 23:20:00,
2013-05-12 19:30:00,64.0,29.3,30.08,NNE,13,6.0,6.0,27,0.00,,,0.00,167,Wunderground v.1.15,2013-05-12 23:30:00,
2013-05-12 19:40:00,63.4,31.4,30.08,WNW,294,5.0,5.0,30,0.00,,,0.00,49,Wunderground v.1.15,2013-05-12 23:40:00,
2013-05-12 19:50:00,62.4,31.3,30.08,NNW,345,5.0,5.0,31,0.00,,,0.00,37,Wunderground v.1.15,2013-05-12 23:50:00,
2013-05-12 20:00:00,62.0,31.8,30.09,North,5,4.0,4.0,32,0.00,,,0.00,30,Wunderground v.1.15,2013-05-13 00:00:00,
2013-05-12 20:10:00,61.3,30.4,30.09,North,355,6.0,13.0,31,0.00,,,0.00,18,Wunderground v.1.15,2013-05-13 00:10:00,
2013-05-12 20:20:00,60.9,30.0,30.09,NNE,21,5.0,5.0,31,0.00,,,0.00,12,Wunderground v.1.15,2013-05-13 00:20:00,
2013-05-12 20:30:00,60.4,29.6,30.09,North,360,6.0,6.0,31,0.00,,,0.00,7,Wunderground v.1.15,2013-05-13 00:30:00,
2013-05-12 20:40:00,59.9,29.2,30.10,NNE,14,4.0,4.0,31,0.00,,,0.00,0,Wunderground v.1.15,2013-05-13 00:40:00,
2013-05-12 20:50:00,59.5,29.6,30.10,NNE,21,4.0,4.0,32,0.00,,,0.00,0,Wunderground v.1.15,2013-05-13 00:50:00,
2013-05-12 21:00:00,59.2,28.5,30.10,North,5,5.0,5.0,31,0.00,,,0.00,0,Wunderground v.1.15,2013-05-13 01:00:00,
2013-05-12 21:10:00,58.9,30.6,30.10,NNW,346,5.0,13.0,34,0.00,,,0.00,0,Wunderground v.1.15,2013-05-13 01:10:00,
2013-05-12 21:20:00,58.3,30.7,30.10,North,5,4.0,4.0,35,0.00,,,0.00,0,Wunderground v.1.15,2013-05-13 01:20:00,
2013-05-12 21:30:00,57.8,30.3,30.10,North,355,4.0,13.0,35,0.00,,,0.00,0,Wunderground v.1.15,2013-05-13 01:30:00,
2013-05-12 21:40:00,57.5,31.4,30.11,North,355,3.0,4.0,37,0.00,,,0.00,0,Wunderground v.1.15,2013-05-13 01:40:00,
2013-05-12 21:50:00,57.0,31.0,30.11,North,355,3.0,3.0,37,0.00,,,0.00,0,Wunderground v.1.15,2013-05-13 01:50:00,
2013-05-12 22:00:00,56.7,32.0,30.11,North,9,3.0,3.0,39,0.00,,,0.00,0,Wunderground v.1.15,2013-05-13 02:00:00,
2013-05-12 22:10:00,56.2,32.8,30.12,North,5,2.0,12.0,41,0.00,,,0.00,0,Wunderground v.1.15,2013-05-13 02:10:00,
2013-05-12 22:20:00,55.6,33.4,30.12,North,9,2.0,12.0,43,0.00,,,0.00,0,Wunderground v.1.15,2013-05-13 02:20:00,
2013-05-12 22:30:00,55.3,33.7,30.13,North,5,3.0,3.0,44,0.00,,,0.00,0,Wunderground v.1.15,2013-05-13 02:30:00,
2013-05-12 22:40:00,54.8,34.9,30.14,North,5,2.0,2.0,47,0.00,,,0.00,0,Wunderground v.1.15,2013-05-13 02:40:00,
2013-05-12 22:50:00,54.2,34.9,30.14,NNE,15,2.0,3.0,48,0.00,,,0.00,0,Wunderground v.1.15,2013-05-13 02:50:00,
2013-05-12 23:00:00,54.1,35.3,30.14,North,5,3.0,4.0,49,0.00,,,0.00,0,Wunderground v.1.15,2013-05-13 03:00:00,
2013-05-12 23:10:00,53.9,34.6,30.14,North,355,3.0,10.0,48,0.00,,,0.00,0,Wunderground v.1.15,2013-05-13 03:10:00,
2013-05-12 23:21:00,53.9,34.1,30.14,North,9,3.0,3.0,47,0.00,,,0.00,0,Wunderground v.1.15,2013-05-13 03:21:00,
2013-05-12 23:30:00,53.6,33.8,30.14,North,5,2.0,2.0,47,0.00,,,0.00,0,Wunderground v.1.15,2013-05-13 03:30:00,
2013-05-12 23:40:00,53.3,34.1,30.14,North,11,2.0,2.0,48,0.00,,,0.00,0,Wunderground v.1.15,2013-05-13 03:40:00,
2013-05-12 23:50:00,53.3,33.0,30.14,NNE,14,1.0,1.0,46,0.00,,,0.00,0,Wunderground v.1.15,2013-05-13 03:50:00,